Terminal Aerodrome Forecast
Issued by NWS

Current Version | Previous Version | Graphics & Text | Print | Product List | Glossary On
Versions: 1 2 3 4 5 6 7 8 9 10 11 12 13 14 15 16 17 18 19 20 21 22 23 24 25
915
FTUS41 KPBZ 281139
TAFHLG
TAF
KHLG 281139Z 2812/2912 19006KT P6SM BKN200
      TEMPO 2812/2813 3SM BR
     FM290400 15005KT P6SM VCSH OVC090=

USA.gov is the U.S. government's official web portal to all federal, state and local government web resources and services.